Time;durP1;ratioP1;P1;durP2;ratioP2;P2;SDS_P1;SDS_P2;PMS_P1;PMS_P2;Temp;Humidity;BMP_temperature;BMP_pressure;BME280_temperature;BME280_humidity;BME280_pressure;Samples;Min_cycle;Max_cycle;Signal;HPM_P1;HPM_P2
2022/07/07 00:01:41;;;;;;;14.00;12.80;;;;;;;16.43;nan;101289.25;5059176;28;20178;-69
2022/07/07 00:04:08;;;;;;;14.43;13.10;;;;;;;16.17;nan;101279.75;5059786;28;20550;-68
2022/07/07 00:06:34;;;;;;;12.90;11.80;;;;;;;16.29;nan;101278.81;5058970;28;20224;-66
2022/07/07 00:08:59;;;;;;;12.97;11.83;;;;;;;16.31;nan;101273.53;5059244;28;20471;-66
2022/07/07 00:11:25;;;;;;;13.17;11.97;;;;;;;16.65;nan;101262.78;5059430;28;20721;-68
2022/07/07 00:13:51;;;;;;;14.53;13.23;;;;;;;16.50;nan;101267.25;5057094;28;20169;-67
2022/07/07 00:16:16;;;;;;;14.27;13.00;;;;;;;16.92;nan;101252.97;5058689;28;20184;-67
2022/07/07 00:18:42;;;;;;;14.30;13.03;;;;;;;16.36;nan;101252.44;5058452;28;20275;-68
2022/07/07 00:21:07;;;;;;;13.60;12.30;;;;;;;16.61;nan;101243.50;5058579;28;20216;-67
2022/07/07 00:23:33;;;;;;;14.97;13.77;;;;;;;16.32;nan;101247.22;5059036;28;20166;-66
2022/07/07 00:25:58;;;;;;;14.23;12.93;;;;;;;16.28;nan;101240.22;5058608;28;20546;-67
2022/07/07 00:28:24;;;;;;;14.20;13.00;;;;;;;16.32;nan;101243.72;5058547;28;20595;-68
2022/07/07 00:30:49;;;;;;;13.77;12.57;;;;;;;16.54;nan;101230.41;5058869;28;20162;-67
2022/07/07 00:33:15;;;;;;;12.33;11.27;;;;;;;16.81;nan;101232.81;5058118;28;20177;-67
2022/07/07 00:35:40;;;;;;;14.47;13.10;;;;;;;16.60;nan;101223.34;5058461;28;20169;-67
2022/07/07 00:38:06;;;;;;;13.40;12.23;;;;;;;16.82;nan;101223.19;5049853;28;20554;-68
2022/07/07 00:40:32;;;;;;;13.00;11.90;;;;;;;16.41;nan;101214.72;5038385;28;20212;-65
2022/07/07 00:43:00;;;;;;;12.20;11.20;;;;;;;16.66;nan;101210.13;5038457;28;20249;-66
2022/07/07 00:45:25;;;;;;;13.03;11.93;;;;;;;16.57;nan;101209.31;5039393;28;20170;-67
2022/07/07 00:47:52;;;;;;;13.40;12.20;;;;;;;16.57;nan;101207.56;5038774;28;20803;-66
2022/07/07 00:50:18;;;;;;;13.03;11.83;;;;;;;16.41;nan;101204.19;5038481;28;20510;-66
2022/07/07 00:52:44;;;;;;;12.80;11.70;;;;;;;16.65;nan;101207.50;5038724;28;20384;-66
2022/07/07 00:55:09;;;;;;;13.77;12.60;;;;;;;16.51;nan;101207.63;5038239;28;20413;-66
2022/07/07 00:57:35;;;;;;;14.37;13.17;;;;;;;16.81;nan;101198.59;5038189;28;20757;-66
2022/07/07 01:00:10;;;;;;;13.10;12.00;;;;;;;16.89;nan;101189.75;5038801;28;20186;-66
2022/07/07 01:02:36;;;;;;;13.93;12.63;;;;;;;16.56;nan;101184.78;5038148;28;20450;-66
2022/07/07 01:05:04;;;;;;;13.50;12.30;;;;;;;16.50;nan;101188.31;5037991;28;20379;-67
2022/07/07 01:07:30;;;;;;;14.23;13.03;;;;;;;16.67;nan;101184.69;5037946;28;20166;-66
2022/07/07 01:09:56;;;;;;;13.10;11.93;;;;;;;16.90;nan;101180.97;5037791;28;20403;-67
2022/07/07 01:12:22;;;;;;;13.30;12.00;;;;;;;16.67;nan;101176.78;5038558;28;20181;-67
2022/07/07 01:14:48;;;;;;;13.00;11.80;;;;;;;16.78;nan;101177.56;5037877;28;20384;-65
2022/07/07 01:17:13;;;;;;;13.43;12.33;;;;;;;16.90;nan;101163.44;5037164;28;20218;-67
2022/07/07 01:19:38;;;;;;;14.20;12.90;;;;;;;17.02;nan;101161.56;5053958;28;20206;-66
2022/07/07 01:22:07;;;;;;;13.57;12.27;;;;;;;17.06;nan;101161.53;5038009;28;20257;-66
2022/07/07 01:24:33;;;;;;;14.57;13.37;;;;;;;16.62;nan;101160.16;5039312;28;20204;-67
2022/07/07 01:27:14;;;;;;;15.00;13.70;;;;;;;16.82;nan;101146.81;5042778;28;20632;-66
2022/07/07 01:29:42;;;;;;;14.93;13.63;;;;;;;16.61;nan;101147.88;5042096;28;20441;-66
2022/07/07 01:32:08;;;;;;;16.10;14.50;;;;;;;16.94;nan;101143.19;5041367;28;20682;-67
2022/07/07 01:34:39;;;;;;;14.33;13.10;;;;;;;17.39;nan;101138.31;5041236;28;20408;-65
2022/07/07 01:37:05;;;;;;;15.80;14.30;;;;;;;17.22;nan;101130.59;5042089;28;20380;-65
2022/07/07 01:39:31;;;;;;;15.10;13.80;;;;;;;17.05;nan;101132.53;5042299;28;20491;-66
2022/07/07 01:41:56;;;;;;;16.03;14.53;;;;;;;17.13;nan;101131.59;5041820;28;20420;-66
2022/07/07 01:44:22;;;;;;;16.53;14.93;;;;;;;16.87;nan;101123.91;5041560;28;20467;-66
2022/07/07 01:46:47;;;;;;;17.87;16.27;;;;;;;17.17;nan;101120.13;5041495;28;20154;-67
2022/07/07 01:49:13;;;;;;;16.83;15.33;;;;;;;17.00;nan;101116.81;5042051;28;20185;-66
2022/07/07 01:51:39;;;;;;;17.50;16.00;;;;;;;17.13;nan;101113.16;5041723;28;20186;-65
2022/07/07 01:54:05;;;;;;;17.60;16.10;;;;;;;17.03;nan;101103.59;5041785;28;20174;-66
2022/07/07 01:56:30;;;;;;;17.27;15.67;;;;;;;16.98;nan;101103.66;5041599;28;20383;-67
2022/07/07 01:58:55;;;;;;;15.40;13.90;;;;;;;17.07;nan;101100.03;5041389;28;20278;-67
2022/07/07 02:01:21;;;;;;;17.43;15.93;;;;;;;17.47;nan;101099.53;5041800;28;20459;-67
2022/07/07 02:03:46;;;;;;;16.87;15.27;;;;;;;17.22;nan;101104.25;5041260;28;20216;-66
2022/07/07 02:06:11;;;;;;;18.97;17.27;;;;;;;17.26;nan;101094.56;5042175;28;20202;-67
2022/07/07 02:08:37;;;;;;;19.40;17.60;;;;;;;17.11;nan;101091.19;5041272;28;20170;-65
2022/07/07 02:11:15;;;;;;;16.77;15.17;;;;;;;17.21;nan;101085.81;5041625;28;20194;-65
2022/07/07 02:13:44;;;;;;;17.27;15.77;;;;;;;17.50;nan;101091.59;5041241;28;20177;-66
2022/07/07 02:16:10;;;;;;;17.53;16.03;;;;;;;17.10;nan;101092.13;5041247;28;20504;-65
2022/07/07 02:18:37;;;;;;;19.17;17.47;;;;;;;17.21;nan;101085.81;5041098;28;20720;-65
2022/07/07 02:21:04;;;;;;;18.40;16.60;;;;;;;17.12;nan;101092.09;5041768;28;20424;-66
2022/07/07 02:23:30;;;;;;;20.63;18.73;;;;;;;17.12;nan;101092.09;5040988;28;20512;-65
2022/07/07 02:25:56;;;;;;;19.40;17.60;;;;;;;17.68;nan;101081.69;5041051;28;20419;-65
2022/07/07 02:28:23;;;;;;;20.50;18.60;;;;;;;17.32;nan;101090.06;5041595;28;20395;-66
2022/07/07 02:30:51;;;;;;;20.67;18.77;;;;;;;17.29;nan;101092.75;5040977;28;20170;-67
2022/07/07 02:33:16;;;;;;;20.43;18.63;;;;;;;17.37;nan;101087.38;5040904;28;20395;-66
2022/07/07 02:35:42;;;;;;;21.10;19.07;;;;;;;16.99;nan;101092.25;5040617;28;20806;-66
2022/07/07 02:38:07;;;;;;;21.10;19.00;;;;;;;17.62;nan;101074.75;5040741;28;20544;-66
2022/07/07 02:40:33;;;;;;;19.90;18.17;;;;;;;17.80;nan;101080.63;5040616;28;20198;-66
2022/07/07 02:42:58;;;;;;;22.10;20.10;;;;;;;17.20;nan;101076.16;5040927;28;20618;-66
2022/07/07 02:45:23;;;;;;;22.43;20.33;;;;;;;17.42;nan;101067.09;5040732;28;20233;-65
2022/07/07 02:47:49;;;;;;;23.47;21.27;;;;;;;17.09;nan;101071.03;5040534;28;20249;-66
2022/07/07 02:50:14;;;;;;;25.40;22.90;;;;;;;17.43;nan;101062.72;5040990;28;20416;-65
2022/07/07 02:52:39;;;;;;;31.27;27.93;;;;;;;17.35;nan;101057.53;5040537;28;20181;-67
2022/07/07 02:55:05;;;;;;;27.10;24.50;;;;;;;17.36;nan;101059.28;5040320;28;20182;-65
2022/07/07 02:57:31;;;;;;;27.70;24.80;;;;;;;18.30;nan;101047.31;5040666;28;20236;-66
2022/07/07 02:59:56;;;;;;;25.40;23.03;;;;;;;18.03;nan;101048.66;5040215;28;20484;-65
2022/07/07 03:02:22;;;;;;;26.00;23.50;;;;;;;17.83;nan;101051.56;5040276;28;20253;-66
2022/07/07 03:04:48;;;;;;;25.00;22.47;;;;;;;17.92;nan;101040.91;5040785;28;20175;-65
2022/07/07 03:07:13;;;;;;;25.93;23.03;;;;;;;18.08;nan;101041.53;5040277;28;20528;-66
2022/07/07 03:09:39;;;;;;;24.87;22.47;;;;;;;18.20;nan;101042.22;5040103;28;20439;-65
2022/07/07 03:12:05;;;;;;;23.57;21.47;;;;;;;18.01;nan;101034.63;5040501;28;20509;-66
2022/07/07 03:14:30;;;;;;;25.90;23.20;;;;;;;17.97;nan;101038.22;5040020;28;20178;-66
2022/07/07 03:16:56;;;;;;;23.03;20.83;;;;;;;18.38;nan;101033.13;5040018;28;20293;-66
2022/07/07 03:19:21;;;;;;;23.30;21.10;;;;;;;17.63;nan;101031.66;5040597;28;20448;-66
2022/07/07 03:21:46;;;;;;;24.80;22.40;;;;;;;18.00;nan;101019.69;5039972;28;20248;-66
2022/07/07 03:24:12;;;;;;;26.83;24.03;;;;;;;18.08;nan;101027.50;5039760;28;20180;-66
2022/07/07 03:26:37;;;;;;;25.37;22.83;;;;;;;17.67;nan;101025.44;5040812;28;20178;-66
2022/07/07 03:29:03;;;;;;;24.20;21.80;;;;;;;17.64;nan;101021.97;5040331;28;20166;-65
2022/07/07 03:31:28;;;;;;;25.67;23.27;;;;;;;17.53;nan;101019.50;5039689;28;20169;-66
2022/07/07 03:33:54;;;;;;;24.97;22.57;;;;;;;18.04;nan;101024.03;5039863;28;20467;-65
2022/07/07 03:36:19;;;;;;;24.33;21.93;;;;;;;17.92;nan;101021.59;5039577;28;20257;-67
2022/07/07 03:38:44;;;;;;;24.50;22.20;;;;;;;17.81;nan;101017.31;5039556;28;20170;-65
2022/07/07 03:41:10;;;;;;;24.50;22.13;;;;;;;18.05;nan;101012.59;5039811;28;20540;-65
2022/07/07 03:43:36;;;;;;;24.57;22.27;;;;;;;18.01;nan;101016.16;5039429;28;20309;-66
2022/07/07 03:46:01;;;;;;;24.17;21.87;;;;;;;18.44;nan;101011.88;5039470;28;20388;-66
2022/07/07 03:48:29;;;;;;;23.20;21.10;;;;;;;17.71;nan;101010.47;5040023;28;20639;-65
2022/07/07 03:50:54;;;;;;;23.07;20.83;;;;;;;17.59;nan;101011.53;5039486;28;20170;-65
2022/07/07 03:53:19;;;;;;;24.00;21.90;;;;;;;18.26;nan;101010.47;5039332;28;20391;-66
2022/07/07 03:55:45;;;;;;;22.20;20.20;;;;;;;18.04;nan;101005.56;5040029;28;20185;-65
2022/07/07 03:58:10;;;;;;;22.80;20.70;;;;;;;18.05;nan;101007.31;5039163;28;20178;-66
2022/07/07 04:00:36;;;;;;;22.97;20.77;;;;;;;18.16;nan;101009.75;5039419;28;20586;-66
2022/07/07 04:03:01;;;;;;;22.17;19.97;;;;;;;17.94;nan;101004.84;5039602;28;20174;-66
2022/07/07 04:05:26;;;;;;;22.20;20.10;;;;;;;17.87;nan;100997.03;5039361;28;20268;-65
2022/07/07 04:07:52;;;;;;;21.33;19.33;;;;;;;17.57;nan;100999.25;5039427;28;20177;-67
2022/07/07 04:10:17;;;;;;;20.90;18.90;;;;;;;17.94;nan;101002.22;5039719;28;20308;-66
2022/07/07 04:12:42;;;;;;;20.60;18.50;;;;;;;17.84;nan;100997.94;5039105;28;20181;-67
2022/07/07 04:15:08;;;;;;;19.63;17.83;;;;;;;17.75;nan;100993.69;5038902;28;20209;-65
2022/07/07 04:17:33;;;;;;;20.67;18.83;;;;;;;17.85;nan;100989.13;5038877;28;20623;-68
2022/07/07 04:19:59;;;;;;;20.03;18.20;;;;;;;17.92;nan;100989.94;5038817;28;20240;-67
2022/07/07 04:22:24;;;;;;;19.90;18.10;;;;;;;18.31;nan;100985.72;5044379;28;20177;-68
2022/07/07 04:24:50;;;;;;;21.67;19.37;;;;;;;18.19;nan;100988.59;5050576;28;20303;-68
2022/07/07 04:27:15;;;;;;;19.47;17.70;;;;;;;18.22;nan;100985.03;5044095;28;20189;-69
2022/07/07 04:29:41;;;;;;;18.77;17.10;;;;;;;18.11;nan;100977.31;5039129;28;20240;-69
2022/07/07 04:32:07;;;;;;;19.60;17.63;;;;;;;18.08;nan;100986.13;5057965;28;20215;-68
2022/07/07 04:34:32;;;;;;;18.23;16.63;;;;;;;18.45;nan;100981.94;5058357;28;20216;-67
2022/07/07 04:36:58;;;;;;;19.73;18.03;;;;;;;18.44;nan;100978.44;5058126;28;20204;-67
2022/07/07 04:39:23;;;;;;;21.13;19.20;;;;;;;18.57;nan;100972.94;5049590;28;20189;-67
2022/07/07 04:41:49;;;;;;;19.70;17.90;;;;;;;17.98;nan;100974.88;5053695;28;20201;-67
2022/07/07 04:44:14;;;;;;;20.67;18.77;;;;;;;18.52;nan;100968.59;5056565;28;20455;-66
2022/07/07 04:46:39;;;;;;;19.20;17.40;;;;;;;18.04;nan;100978.31;5057536;28;20190;-67
2022/07/07 04:49:05;;;;;;;21.50;19.60;;;;;;;18.01;nan;100979.22;5057567;28;20565;-66
2022/07/07 04:51:30;;;;;;;19.80;18.10;;;;;;;18.01;nan;100982.72;5054941;28;20169;-67
2022/07/07 04:53:56;;;;;;;21.50;19.33;;;;;;;18.18;nan;100976.28;5056131;28;20209;-68
2022/07/07 04:56:21;;;;;;;20.50;18.80;;;;;;;18.09;nan;100982.59;5057037;28;20181;-68
2022/07/07 04:58:47;;;;;;;18.20;16.60;;;;;;;18.09;nan;100987.88;5055420;28;20186;-66
2022/07/07 05:01:18;;;;;;;17.77;16.27;;;;;;;18.26;nan;100979.66;5056666;28;20217;-64
2022/07/07 05:03:43;;;;;;;15.87;14.57;;;;;;;18.29;nan;100984.00;5051605;28;20282;-64
2022/07/07 05:06:10;;;;;;;14.07;12.87;;;;;;;18.15;nan;100976.34;5056194;28;20511;-65
2022/07/07 05:08:36;;;;;;;11.90;10.90;;;;;;;18.16;nan;100989.50;5055482;28;20509;-66
2022/07/07 05:11:01;;;;;;;10.87;9.97;;;;;;;18.37;nan;100975.94;5054882;28;20521;-65
2022/07/07 05:13:27;;;;;;;10.73;9.73;;;;;;;18.56;nan;100976.47;5056028;28;20177;-65
2022/07/07 05:15:52;;;;;;;9.60;8.80;;;;;;;18.52;nan;100975.63;5056574;28;20201;-65
2022/07/07 05:18:18;;;;;;;9.00;8.30;;;;;;;18.55;nan;100980.00;5057734;28;20225;-65
2022/07/07 05:20:43;;;;;;;8.00;7.30;;;;;;;18.54;nan;100978.25;5057968;28;20437;-65
2022/07/07 05:23:09;;;;;;;6.50;6.00;;;;;;;18.68;nan;100968.28;5057575;28;20173;-66
2022/07/07 05:25:34;;;;;;;6.43;5.83;;;;;;;18.73;nan;100974.34;5057431;28;20219;-65
2022/07/07 05:28:00;;;;;;;5.53;5.03;;;;;;;18.78;nan;100979.53;5058008;28;20177;-65
2022/07/07 05:30:25;;;;;;;5.20;4.70;;;;;;;18.58;nan;100987.84;5057644;28;20441;-65
2022/07/07 05:32:50;;;;;;;4.90;4.50;;;;;;;18.71;nan;100985.84;5057660;28;20181;-65
2022/07/07 05:35:16;;;;;;;5.27;4.80;;;;;;;19.16;nan;100983.19;5057891;28;20256;-65
2022/07/07 05:37:41;;;;;;;5.10;4.70;;;;;;;19.31;nan;100984.59;5057349;28;20188;-66
2022/07/07 05:40:08;;;;;;;5.03;4.63;;;;;;;19.25;nan;100982.09;5057586;28;20205;-65
2022/07/07 05:42:33;;;;;;;5.53;4.93;;;;;;;19.15;nan;100986.72;5058035;28;20187;-67
2022/07/07 05:44:59;;;;;;;4.70;4.20;;;;;;;18.88;nan;100989.03;5057447;28;20420;-66
2022/07/07 05:47:24;;;;;;;4.10;3.70;;;;;;;19.10;nan;100984.16;5057347;28;20574;-67
2022/07/07 05:49:50;;;;;;;4.30;3.47;;;;;;;19.21;nan;100991.00;5057864;28;20249;-66
2022/07/07 05:52:15;;;;;;;3.70;3.40;;;;;;;19.06;nan;100986.91;5057403;28;20215;-67
2022/07/07 05:54:40;;;;;;;4.47;3.50;;;;;;;19.23;nan;100986.53;5057126;28;20441;-65
2022/07/07 05:57:06;;;;;;;4.10;3.70;;;;;;;19.39;nan;100992.34;5058010;28;20173;-66
2022/07/07 05:59:32;;;;;;;5.10;3.40;;;;;;;19.72;nan;100988.03;5057340;28;20264;-66
2022/07/07 06:01:57;;;;;;;4.00;3.43;;;;;;;19.76;nan;100992.34;5057400;28;20173;-65
2022/07/07 06:04:23;;;;;;;4.10;3.13;;;;;;;19.36;nan;100993.28;5057592;28;20174;-66
2022/07/07 06:06:49;;;;;;;4.73;3.80;;;;;;;19.60;nan;100985.69;5057317;28;20599;-66
2022/07/07 06:09:14;;;;;;;3.30;3.00;;;;;;;19.23;nan;100989.16;5057344;28;20856;-66
2022/07/07 06:11:39;;;;;;;4.73;2.83;;;;;;;19.16;nan;100989.31;5059773;28;20527;-66
2022/07/07 06:14:05;;;;;;;3.57;2.73;;;;;;;19.67;nan;100989.91;5060197;28;20174;-64
2022/07/07 06:16:40;;;;;;;3.10;2.77;;;;;;;19.08;nan;100991.25;5061194;28;20555;-64
2022/07/07 06:19:06;;;;;;;4.37;3.43;;;;;;;19.80;nan;100991.38;5060431;28;20181;-65
2022/07/07 06:21:31;;;;;;;3.63;3.20;;;;;;;19.83;nan;100986.00;5060942;28;20787;-64
2022/07/07 06:23:57;;;;;;;4.80;3.00;;;;;;;20.25;nan;100986.72;5061175;28;20248;-65
2022/07/07 06:26:22;;;;;;;4.77;3.20;;;;;;;20.51;nan;100986.88;5060885;28;20169;-65
2022/07/07 06:28:48;;;;;;;5.73;3.10;;;;;;;21.41;nan;100984.25;5060910;28;20169;-65
2022/07/07 06:31:13;;;;;;;4.10;2.93;;;;;;;20.57;nan;100995.59;5061485;28;20253;-65
2022/07/07 06:33:39;;;;;;;3.47;2.70;;;;;;;20.14;nan;100997.59;5059884;28;20178;-64
2022/07/07 06:36:04;;;;;;;4.17;2.73;;;;;;;20.59;nan;100996.41;5060730;28;20209;-65
2022/07/07 06:38:30;;;;;;;4.40;3.10;;;;;;;20.36;nan;100995.25;5061190;28;20173;-65
2022/07/07 06:40:59;;;;;;;3.83;2.53;;;;;;;19.83;nan;100999.22;5060565;28;20462;-66
2022/07/07 06:43:25;;;;;;;3.47;2.80;;;;;;;19.68;nan;101003.09;5060391;28;20213;-66
2022/07/07 06:45:51;;;;;;;5.03;3.00;;;;;;;19.98;nan;100999.78;5060695;28;20451;-66
2022/07/07 06:48:16;;;;;;;4.30;3.00;;;;;;;19.77;nan;101002.00;5060238;28;20593;-66
2022/07/07 06:50:41;;;;;;;5.37;3.37;;;;;;;19.99;nan;101005.00;5060297;28;20170;-65
2022/07/07 06:53:07;;;;;;;3.20;2.90;;;;;;;19.88;nan;101000.91;5060612;28;20166;-66
2022/07/07 06:55:32;;;;;;;4.37;3.50;;;;;;;19.64;nan;101011.16;5060182;28;20169;-67
2022/07/07 06:57:58;;;;;;;6.10;3.10;;;;;;;19.24;nan;101010.31;5060154;28;20174;-65
2022/07/07 07:00:23;;;;;;;8.50;3.77;;;;;;;19.71;nan;101007.44;5060366;28;20590;-65
2022/07/07 07:02:49;;;;;;;6.30;3.83;;;;;;;19.71;nan;101012.72;5060165;28;20165;-65
2022/07/07 07:05:15;;;;;;;6.30;3.97;;;;;;;19.36;nan;101014.41;5059890;28;20216;-66
2022/07/07 07:07:41;;;;;;;7.30;4.07;;;;;;;19.52;nan;101009.66;5060302;28;20296;-66
2022/07/07 07:10:07;;;;;;;5.27;3.67;;;;;;;19.77;nan;101007.31;5059822;28;20436;-66
2022/07/07 07:12:32;;;;;;;6.10;4.30;;;;;;;19.63;nan;101009.41;5059755;28;20431;-66
2022/07/07 07:14:58;;;;;;;5.53;4.30;;;;;;;19.39;nan;101011.72;5060226;28;20411;-65
2022/07/07 07:17:23;;;;;;;6.10;4.30;;;;;;;19.67;nan;101006.66;5059670;28;20221;-66
2022/07/07 07:19:48;;;;;;;5.63;3.80;;;;;;;20.30;nan;101006.88;5059629;28;20173;-68
2022/07/07 07:22:14;;;;;;;7.03;4.00;;;;;;;21.02;nan;101001.34;5060040;28;20166;-70
2022/07/07 07:24:39;;;;;;;5.13;4.30;;;;;;;22.96;nan;101002.88;5059492;28;20174;-70
2022/07/07 07:27:05;;;;;;;4.90;3.10;;;;;;;23.96;nan;101000.75;5058906;28;20184;-69
2022/07/07 07:29:30;;;;;;;4.90;3.10;;;;;;;23.92;nan;100994.66;5059879;28;20531;-70
2022/07/07 07:31:55;;;;;;;4.33;3.10;;;;;;;25.32;nan;100997.34;5059347;28;20245;-71
2022/07/07 07:34:21;;;;;;;3.60;3.10;;;;;;;25.97;nan;101002.19;5059233;28;20547;-70
2022/07/07 07:36:46;;;;;;;4.73;2.80;;;;;;;26.43;nan;100997.16;5059177;28;20239;-69
2022/07/07 07:39:12;;;;;;;5.00;3.10;;;;;;;25.06;nan;101002.13;5059423;28;20170;-70
2022/07/07 07:41:38;;;;;;;5.40;3.10;;;;;;;23.67;nan;101008.97;5059353;28;20284;-69
2022/07/07 07:44:04;;;;;;;3.27;2.70;;;;;;;22.46;nan;101018.00;5059562;28;20224;-69
2022/07/07 07:46:29;;;;;;;7.73;3.17;;;;;;;22.14;nan;101014.63;5059270;28;20451;-69
2022/07/07 07:48:55;;;;;;;5.20;3.20;;;;;;;21.97;nan;101025.81;5059078;28;20550;-68
2022/07/07 07:51:20;;;;;;;4.50;3.50;;;;;;;21.22;nan;101036.13;5059587;28;20169;-68
2022/07/07 07:53:45;;;;;;;6.40;4.17;;;;;;;20.75;nan;101050.72;5059016;28;20165;-68
2022/07/07 07:56:11;;;;;;;10.77;4.57;;;;;;;20.51;nan;101062.81;5059107;28;20185;-68
2022/07/07 07:58:37;;;;;;;5.37;3.50;;;;;;;20.31;nan;101053.63;5059600;28;20192;-67
2022/07/07 08:01:03;;;;;;;8.67;7.73;;;;;;;20.17;nan;101053.09;5059002;28;20601;-68
2022/07/07 08:03:29;;;;;;;6.70;4.03;;;;;;;19.83;nan;101059.22;5058793;28;20252;-68
2022/07/07 08:05:54;;;;;;;8.43;5.87;;;;;;;20.11;nan;101067.38;5059284;28;20715;-69
2022/07/07 08:08:20;;;;;;;5.23;4.17;;;;;;;19.91;nan;101069.63;5058970;28;20542;-69
2022/07/07 08:10:45;;;;;;;10.03;6.80;;;;;;;20.71;nan;101059.66;5058142;28;20189;-69
2022/07/07 08:13:10;;;;;;;5.03;4.10;;;;;;;20.46;nan;101070.03;5059438;28;20165;-70
2022/07/07 08:15:36;;;;;;;6.20;4.90;;;;;;;20.50;nan;101074.34;5060248;28;20165;-70
2022/07/07 08:18:01;;;;;;;4.87;4.00;;;;;;;20.58;nan;101071.47;5057777;28;20217;-69
2022/07/07 08:20:26;;;;;;;7.30;5.00;;;;;;;21.05;nan;101074.59;5058889;28;20224;-69
2022/07/07 08:22:52;;;;;;;10.53;5.10;;;;;;;21.50;nan;101076.81;5058654;28;20307;-69
2022/07/07 08:25:17;;;;;;;9.80;6.60;;;;;;;21.97;nan;101075.38;5058415;28;20169;-69
2022/07/07 08:27:43;;;;;;;6.47;3.97;;;;;;;22.02;nan;101084.06;5058950;28;20161;-69
2022/07/07 08:30:08;;;;;;;6.57;4.60;;;;;;;22.82;nan;101075.19;5058530;28;20540;-70
2022/07/07 08:32:34;;;;;;;7.57;4.10;;;;;;;23.45;nan;101096.78;5058277;28;20162;-70
2022/07/07 08:34:59;;;;;;;4.67;3.57;;;;;;;24.80;nan;101078.84;5057912;28;20192;-68
2022/07/07 08:37:25;;;;;;;7.53;3.60;;;;;;;24.33;nan;101079.09;5058301;28;20165;-69
2022/07/07 08:39:50;;;;;;;5.63;3.93;;;;;;;23.25;nan;101088.72;5058182;28;20170;-68
2022/07/07 08:42:16;;;;;;;9.77;4.43;;;;;;;22.91;nan;101089.91;5058699;28;20172;-68
2022/07/07 08:44:42;;;;;;;7.30;4.00;;;;;;;22.64;nan;101093.50;5058168;28;20167;-68
2022/07/07 08:47:07;;;;;;;7.97;3.70;;;;;;;22.89;nan;101095.28;5058229;28;20777;-68
2022/07/07 08:49:33;;;;;;;5.90;3.63;;;;;;;26.45;nan;101077.28;5058577;28;20558;-67
2022/07/07 08:51:58;;;;;;;4.93;3.73;;;;;;;27.75;nan;101081.88;5038366;28;20172;-68
2022/07/07 08:54:26;;;;;;;5.67;2.97;;;;;;;25.88;nan;101083.63;5037999;28;20177;-67
2022/07/07 08:56:52;;;;;;;11.30;4.77;;;;;;;26.41;nan;101097.09;5038566;28;20174;-67
2022/07/07 08:59:18;;;;;;;17.87;4.93;;;;;;;27.03;nan;101086.72;5041343;28;20563;-70
2022/07/07 09:01:54;;;;;;;4.70;3.00;;;;;;;26.87;nan;101092.91;5057657;28;20861;-68
2022/07/07 09:04:20;;;;;;;5.67;3.33;;;;;;;27.62;nan;101096.94;5057729;28;20256;-68
2022/07/07 09:06:55;;;;;;;3.17;2.87;;;;;;;27.05;nan;101106.25;5057926;28;20798;-68
2022/07/07 09:09:28;;;;;;;4.80;2.97;;;;;;;27.50;nan;101120.75;5057788;28;20444;-68
2022/07/07 09:12:00;;;;;;;6.07;4.37;;;;;;;27.19;nan;101111.69;5054570;28;20435;-68
2022/07/07 09:14:25;;;;;;;3.47;2.90;;;;;;;25.42;nan;101128.56;5048697;28;20833;-69
2022/07/07 09:16:51;;;;;;;5.00;3.60;;;;;;;24.76;nan;101130.59;5045270;28;20482;-70
2022/07/07 09:19:18;;;;;;;9.70;5.50;;;;;;;24.30;nan;101132.50;5037789;28;20170;-69
2022/07/07 09:21:44;;;;;;;8.50;3.80;;;;;;;23.75;nan;101139.09;5037314;28;20209;-69
2022/07/07 09:24:09;;;;;;;4.20;3.83;;;;;;;23.64;nan;101142.19;5037615;28;20420;-68
2022/07/07 09:26:40;;;;;;;9.13;3.63;;;;;;;23.28;nan;101152.44;5038279;28;20193;-69
2022/07/07 09:29:07;;;;;;;8.07;3.30;;;;;;;23.15;nan;101147.56;5037502;28;20227;-69
2022/07/07 09:31:59;;;;;;;6.20;2.83;;;;;;;23.68;nan;101150.94;5037783;28;20413;-69
2022/07/07 09:34:26;;;;;;;3.60;3.13;;;;;;;23.42;nan;101158.13;5037783;28;20405;-69
2022/07/07 09:39:47;;;;;;;3.63;2.60;;;;;;;25.35;nan;101147.53;5021621;28;20424;-68
2022/07/07 09:42:26;;;;;;;4.70;2.70;;;;;;;25.86;nan;101155.84;5037622;28;20451;-69
2022/07/07 09:44:57;;;;;;;4.70;3.20;;;;;;;24.78;nan;101158.03;5038396;28;20871;-68
2022/07/07 09:47:24;;;;;;;4.93;3.20;;;;;;;24.74;nan;101167.09;5033611;28;20467;-70
2022/07/07 09:50:03;;;;;;;3.00;2.70;;;;;;;24.14;nan;101166.88;5033966;28;20440;-67
2022/07/07 09:52:29;;;;;;;3.67;2.53;;;;;;;24.14;nan;101166.88;5039554;28;20451;-69
2022/07/07 09:54:57;;;;;;;3.77;2.90;;;;;;;23.47;nan;101180.06;5047606;23;20527;-69
2022/07/07 09:57:22;;;;;;;6.53;3.40;;;;;;;22.82;nan;101181.50;5041298;28;20464;-69
2022/07/07 09:59:48;;;;;;;19.63;17.37;;;;;;;22.54;nan;101195.72;5037442;28;20476;-68
2022/07/07 10:02:22;;;;;;;17.70;7.17;;;;;;;23.16;nan;101202.47;5030340;28;20522;-68
2022/07/07 10:04:49;;;;;;;6.70;3.70;;;;;;;22.41;nan;101205.91;5038422;28;20182;-68
2022/07/07 10:07:20;;;;;;;5.20;3.73;;;;;;;22.08;nan;101205.13;5040497;28;20519;-70
2022/07/07 10:09:49;;;;;;;3.70;3.30;;;;;;;22.49;nan;101211.81;5023659;28;20420;-70
2022/07/07 10:12:16;;;;;;;7.03;3.03;;;;;;;22.92;nan;101216.63;5040872;28;20684;-71
2022/07/07 10:14:43;;;;;;;3.70;2.73;;;;;;;23.21;nan;101216.50;5023415;28;20496;-70
2022/07/07 10:17:10;;;;;;;6.73;3.30;;;;;;;24.00;nan;101224.28;5040779;28;20416;-70
2022/07/07 10:19:35;;;;;;;5.97;3.20;;;;;;;23.73;nan;101218.16;5040349;28;20428;-70
2022/07/07 10:22:03;;;;;;;4.83;4.43;;;;;;;22.82;nan;101222.22;5040170;28;20558;-70
2022/07/07 10:24:29;;;;;;;4.63;3.53;;;;;;;22.21;nan;101233.06;5040611;28;20438;-70
2022/07/07 10:26:57;;;;;;;7.33;3.40;;;;;;;22.27;nan;101237.28;5024018;28;20416;-70
2022/07/07 10:29:39;;;;;;;6.60;4.10;;;;;;;22.59;nan;101232.78;5007088;28;20519;-71
2022/07/07 10:32:05;;;;;;;6.83;3.70;;;;;;;22.59;nan;101232.78;5036689;28;20444;-71
2022/07/07 10:34:33;;;;;;;5.13;3.40;;;;;;;21.98;nan;101237.28;5040809;28;20427;-72
2022/07/07 10:37:09;;;;;;;4.20;3.13;;;;;;;22.97;nan;101244.78;5039863;28;20731;-68
2022/07/07 10:39:37;;;;;;;5.10;2.90;;;;;;;22.61;nan;101236.25;5040442;28;20428;-69
2022/07/07 10:43:33;;;;;;;6.50;4.10;;;;;;;23.73;49.29;101236.78;5115725;27;20574;-69
2022/07/07 10:46:01;;;;;;;4.00;3.00;;;;;;;25.03;46.89;101239.66;5114396;28;20437;-70
2022/07/07 10:48:43;;;;;;;4.67;3.17;;;;;;;24.27;47.48;101240.06;5115151;28;20504;-68
2022/07/07 10:51:16;;;;;;;3.17;2.60;;;;;;;23.64;51.08;101245.13;5115145;28;20506;-69
2022/07/07 10:53:55;;;;;;;5.13;2.90;;;;;;;23.51;51.11;101245.56;5115432;28;20409;-69
2022/07/07 10:56:21;;;;;;;4.23;2.80;;;;;;;24.69;50.48;101241.09;5109963;28;20551;-69
2022/07/07 10:58:58;;;;;;;4.70;3.00;;;;;;;24.51;51.09;101248.88;5094856;28;20430;-68
2022/07/07 11:01:29;;;;;;;4.10;2.67;;;;;;;23.71;51.20;101252.81;5094961;28;21182;-66
2022/07/07 11:03:55;;;;;;;4.70;3.20;;;;;;;23.51;52.01;101250.03;5107617;28;21176;-67
2022/07/07 11:06:21;;;;;;;10.83;5.50;;;;;;;24.21;49.70;101258.97;5110881;28;20690;-68
2022/07/07 11:08:58;;;;;;;4.80;3.07;;;;;;;23.58;51.64;101256.00;5113889;28;20429;-68
2022/07/07 11:11:24;;;;;;;8.10;2.70;;;;;;;23.00;52.60;101259.75;5115043;28;20171;-67
2022/07/07 11:14:02;;;;;;;4.93;3.20;;;;;;;23.08;53.52;101271.00;5114935;28;20437;-68
2022/07/07 11:16:28;;;;;;;5.90;3.10;;;;;;;23.02;53.08;101253.47;5113462;28;20187;-67
2022/07/07 11:18:57;;;;;;;5.20;2.80;;;;;;;23.44;52.59;101264.50;5115093;28;20440;-68
2022/07/07 11:21:38;;;;;;;4.00;3.30;;;;;;;24.35;49.79;101263.75;5114838;28;20449;-68
2022/07/07 11:24:14;;;;;;;3.47;2.77;;;;;;;23.52;51.44;101275.72;5113217;28;20715;-67
2022/07/07 11:26:39;;;;;;;5.07;2.67;;;;;;;23.16;53.45;101281.41;5114159;28;20421;-69
2022/07/07 11:29:05;;;;;;;3.70;2.90;;;;;;;22.38;55.18;101277.72;5114435;28;20425;-68
2022/07/07 11:31:30;;;;;;;3.73;2.87;;;;;;;22.30;55.92;101282.34;5115015;28;20532;-66
2022/07/07 11:33:57;;;;;;;4.40;2.70;;;;;;;22.36;57.02;101279.53;5114362;28;20244;-68